sensor_id;sensor_type;location;lat;lon;timestamp;temperature;humidity
33645;DHT22;19986;48.190;16.366;2023-04-01T00:00:52;14.00;99.90
33645;DHT22;19986;48.190;16.366;2023-04-01T00:03:19;14.00;99.90
33645;DHT22;19986;48.190;16.366;2023-04-01T00:05:46;14.00;99.90
33645;DHT22;19986;48.190;16.366;2023-04-01T00:08:12;14.00;99.90
33645;DHT22;19986;48.190;16.366;2023-04-01T00:10:38;14.00;99.90
33645;DHT22;19986;48.190;16.366;2023-04-01T00:13:04;14.00;99.90
33645;DHT22;19986;48.190;16.366;2023-04-01T00:15:30;14.00;99.90
33645;DHT22;19986;48.190;16.366;2023-04-01T00:17:56;13.90;99.90
33645;DHT22;19986;48.190;16.366;2023-04-01T00:20:22;13.90;99.90
33645;DHT22;19986;48.190;16.366;2023-04-01T00:22:48;14.00;99.90
33645;DHT22;19986;48.190;16.366;2023-04-01T00:25:14;13.90;99.90
33645;DHT22;19986;48.190;16.366;2023-04-01T00:27:41;13.90;99.90
33645;DHT22;19986;48.190;16.366;2023-04-01T00:30:08;14.00;99.90
33645;DHT22;19986;48.190;16.366;2023-04-01T00:32:34;13.80;99.90
33645;DHT22;19986;48.190;16.366;2023-04-01T00:35:01;13.90;99.90
33645;DHT22;19986;48.190;16.366;2023-04-01T00:37:27;13.90;99.90
33645;DHT22;19986;48.190;16.366;2023-04-01T00:39:54;13.90;99.90
33645;DHT22;19986;48.190;16.366;2023-04-01T00:42:20;13.90;99.90
33645;DHT22;19986;48.190;16.366;2023-04-01T00:44:50;13.90;99.90
33645;DHT22;19986;48.190;16.366;2023-04-01T00:47:16;13.90;99.90
33645;DHT22;19986;48.190;16.366;2023-04-01T00:49:46;13.90;99.90
33645;DHT22;19986;48.190;16.366;2023-04-01T00:52:17;13.90;99.90
33645;DHT22;19986;48.190;16.366;2023-04-01T00:54:46;13.90;99.90
33645;DHT22;19986;48.190;16.366;2023-04-01T00:57:23;13.90;99.90
33645;DHT22;19986;48.190;16.366;2023-04-01T00:59:53;13.90;99.90
33645;DHT22;19986;48.190;16.366;2023-04-01T01:02:20;13.90;99.90
33645;DHT22;19986;48.190;16.366;2023-04-01T01:04:46;13.90;99.90
33645;DHT22;19986;48.190;16.366;2023-04-01T01:16:06;13.80;99.90
33645;DHT22;19986;48.190;16.366;2023-04-01T01:18:38;13.80;99.90
33645;DHT22;19986;48.190;16.366;2023-04-01T01:24:05;13.80;99.90
33645;DHT22;19986;48.190;16.366;2023-04-01T01:37:33;13.80;99.90
33645;DHT22;19986;48.190;16.366;2023-04-01T01:40:04;13.80;99.90
33645;DHT22;19986;48.190;16.366;2023-04-01T01:42:36;13.80;99.90
33645;DHT22;19986;48.190;16.366;2023-04-01T01:45:04;13.80;99.90
33645;DHT22;19986;48.190;16.366;2023-04-01T01:47:33;13.80;99.90
33645;DHT22;19986;48.190;16.366;2023-04-01T01:50:02;13.80;99.90
33645;DHT22;19986;48.190;16.366;2023-04-01T01:52:29;13.80;99.90
33645;DHT22;19986;48.190;16.366;2023-04-01T01:54:57;13.80;99.90
33645;DHT22;19986;48.190;16.366;2023-04-01T01:57:29;13.80;99.90
33645;DHT22;19986;48.190;16.366;2023-04-01T02:00:00;13.80;99.90
33645;DHT22;19986;48.190;16.366;2023-04-01T02:02:28;13.80;99.90
33645;DHT22;19986;48.190;16.366;2023-04-01T02:04:57;13.80;99.90
33645;DHT22;19986;48.190;16.366;2023-04-01T02:07:32;13.80;99.90
33645;DHT22;19986;48.190;16.366;2023-04-01T02:09:59;13.70;99.90
33645;DHT22;19986;48.190;16.366;2023-04-01T02:12:26;13.70;99.90
33645;DHT22;19986;48.190;16.366;2023-04-01T02:14:56;13.70;99.90
33645;DHT22;19986;48.190;16.366;2023-04-01T02:17:28;13.60;99.90
33645;DHT22;19986;48.190;16.366;2023-04-01T02:20:09;13.60;99.90
33645;DHT22;19986;48.190;16.366;2023-04-01T02:22:44;13.60;99.90
33645;DHT22;19986;48.190;16.366;2023-04-01T02:25:15;13.60;99.90
33645;DHT22;19986;48.190;16.366;2023-04-01T02:27:44;13.50;99.90
33645;DHT22;19986;48.190;16.366;2023-04-01T02:30:11;13.50;99.90
33645;DHT22;19986;48.190;16.366;2023-04-01T02:32:38;13.40;99.90
33645;DHT22;19986;48.190;16.366;2023-04-01T02:35:13;13.50;99.90
33645;DHT22;19986;48.190;16.366;2023-04-01T02:37:39;13.50;99.90
33645;DHT22;19986;48.190;16.366;2023-04-01T02:40:13;13.40;99.90
33645;DHT22;19986;48.190;16.366;2023-04-01T02:42:39;13.40;99.90
33645;DHT22;19986;48.190;16.366;2023-04-01T02:45:06;13.40;99.90
33645;DHT22;19986;48.190;16.366;2023-04-01T02:47:32;13.30;99.90
33645;DHT22;19986;48.190;16.366;2023-04-01T02:49:58;13.30;99.90
33645;DHT22;19986;48.190;16.366;2023-04-01T02:52:25;13.30;99.90
33645;DHT22;19986;48.190;16.366;2023-04-01T02:54:51;13.30;99.90
33645;DHT22;19986;48.190;16.366;2023-04-01T02:57:17;13.30;99.90
33645;DHT22;19986;48.190;16.366;2023-04-01T02:59:43;13.20;99.90
33645;DHT22;19986;48.190;16.366;2023-04-01T03:02:09;13.20;99.90
33645;DHT22;19986;48.190;16.366;2023-04-01T03:04:35;13.20;99.90
33645;DHT22;19986;48.190;16.366;2023-04-01T03:07:01;13.20;99.90
33645;DHT22;19986;48.190;16.366;2023-04-01T03:09:27;13.20;99.90
33645;DHT22;19986;48.190;16.366;2023-04-01T03:11:54;13.20;99.90
33645;DHT22;19986;48.190;16.366;2023-04-01T03:14:20;13.20;99.90
33645;DHT22;19986;48.190;16.366;2023-04-01T03:16:46;13.20;99.90
33645;DHT22;19986;48.190;16.366;2023-04-01T03:19:12;13.20;99.90
33645;DHT22;19986;48.190;16.366;2023-04-01T03:21:40;13.20;99.90
33645;DHT22;19986;48.190;16.366;2023-04-01T03:24:06;13.20;99.90
33645;DHT22;19986;48.190;16.366;2023-04-01T03:26:33;13.20;99.90
33645;DHT22;19986;48.190;16.366;2023-04-01T03:28:59;13.10;99.90
33645;DHT22;19986;48.190;16.366;2023-04-01T03:31:25;13.10;99.90
33645;DHT22;19986;48.190;16.366;2023-04-01T03:33:51;13.20;99.90
33645;DHT22;19986;48.190;16.366;2023-04-01T03:36:17;13.20;99.90
33645;DHT22;19986;48.190;16.366;2023-04-01T03:38:44;13.20;99.90
33645;DHT22;19986;48.190;16.366;2023-04-01T03:41:14;13.20;99.90
33645;DHT22;19986;48.190;16.366;2023-04-01T03:43:41;13.10;99.90
33645;DHT22;19986;48.190;16.366;2023-04-01T03:46:07;13.10;99.90
33645;DHT22;19986;48.190;16.366;2023-04-01T03:48:32;13.10;99.90
33645;DHT22;19986;48.190;16.366;2023-04-01T03:50:59;13.10;99.90
33645;DHT22;19986;48.190;16.366;2023-04-01T03:53:25;13.10;99.90
33645;DHT22;19986;48.190;16.366;2023-04-01T03:55:52;13.10;99.90
33645;DHT22;19986;48.190;16.366;2023-04-01T03:58:19;13.00;99.90
33645;DHT22;19986;48.190;16.366;2023-04-01T04:00:45;13.00;99.90
33645;DHT22;19986;48.190;16.366;2023-04-01T04:03:11;13.00;99.90
33645;DHT22;19986;48.190;16.366;2023-04-01T04:05:37;13.00;99.90
33645;DHT22;19986;48.190;16.366;2023-04-01T04:08:03;13.00;99.90
33645;DHT22;19986;48.190;16.366;2023-04-01T04:10:29;13.00;99.90
33645;DHT22;19986;48.190;16.366;2023-04-01T04:12:56;13.00;99.90
33645;DHT22;19986;48.190;16.366;2023-04-01T04:15:22;13.00;99.90
33645;DHT22;19986;48.190;16.366;2023-04-01T04:17:48;13.00;99.90
33645;DHT22;19986;48.190;16.366;2023-04-01T04:20:15;13.00;99.90
33645;DHT22;19986;48.190;16.366;2023-04-01T04:22:41;13.00;99.90
33645;DHT22;19986;48.190;16.366;2023-04-01T04:25:07;13.00;99.90
33645;DHT22;19986;48.190;16.366;2023-04-01T04:27:33;13.00;99.90
33645;DHT22;19986;48.190;16.366;2023-04-01T04:29:59;13.00;99.90
33645;DHT22;19986;48.190;16.366;2023-04-01T04:32:25;13.00;99.90
33645;DHT22;19986;48.190;16.366;2023-04-01T04:34:51;13.00;99.90
33645;DHT22;19986;48.190;16.366;2023-04-01T04:37:17;13.00;99.90
33645;DHT22;19986;48.190;16.366;2023-04-01T04:39:43;13.00;99.90
33645;DHT22;19986;48.190;16.366;2023-04-01T04:42:09;13.00;99.90
33645;DHT22;19986;48.190;16.366;2023-04-01T04:44:34;13.00;99.90
33645;DHT22;19986;48.190;16.366;2023-04-01T04:47:01;13.00;99.90
33645;DHT22;19986;48.190;16.366;2023-04-01T04:49:27;12.90;99.90
33645;DHT22;19986;48.190;16.366;2023-04-01T04:51:53;13.00;99.90
33645;DHT22;19986;48.190;16.366;2023-04-01T04:54:18;13.00;99.90
33645;DHT22;19986;48.190;16.366;2023-04-01T04:56:44;13.00;99.90
33645;DHT22;19986;48.190;16.366;2023-04-01T04:59:11;13.00;99.90
33645;DHT22;19986;48.190;16.366;2023-04-01T05:01:38;13.10;99.90
33645;DHT22;19986;48.190;16.366;2023-04-01T05:04:04;13.10;99.90
33645;DHT22;19986;48.190;16.366;2023-04-01T05:06:30;13.00;99.90
33645;DHT22;19986;48.190;16.366;2023-04-01T05:08:57;13.00;99.90
33645;DHT22;19986;48.190;16.366;2023-04-01T05:11:23;13.00;99.90
33645;DHT22;19986;48.190;16.366;2023-04-01T05:13:49;13.00;99.90
33645;DHT22;19986;48.190;16.366;2023-04-01T05:16:19;13.00;99.90
33645;DHT22;19986;48.190;16.366;2023-04-01T05:18:46;13.00;99.90
33645;DHT22;19986;48.190;16.366;2023-04-01T05:21:13;13.00;99.90
33645;DHT22;19986;48.190;16.366;2023-04-01T05:23:40;13.00;99.90
33645;DHT22;19986;48.190;16.366;2023-04-01T05:26:09;13.00;99.90
33645;DHT22;19986;48.190;16.366;2023-04-01T05:28:36;13.00;99.90
33645;DHT22;19986;48.190;16.366;2023-04-01T05:31:03;13.10;99.90
33645;DHT22;19986;48.190;16.366;2023-04-01T05:33:30;13.10;99.90
33645;DHT22;19986;48.190;16.366;2023-04-01T05:35:56;13.10;99.90
33645;DHT22;19986;48.190;16.366;2023-04-01T05:38:23;13.10;99.90
33645;DHT22;19986;48.190;16.366;2023-04-01T05:40:49;13.10;99.90
33645;DHT22;19986;48.190;16.366;2023-04-01T05:43:14;13.10;99.90
33645;DHT22;19986;48.190;16.366;2023-04-01T05:45:40;13.10;99.90
33645;DHT22;19986;48.190;16.366;2023-04-01T05:48:07;13.10;99.90
33645;DHT22;19986;48.190;16.366;2023-04-01T05:50:32;13.10;99.90
33645;DHT22;19986;48.190;16.366;2023-04-01T05:52:59;13.10;99.90
33645;DHT22;19986;48.190;16.366;2023-04-01T05:55:25;13.10;99.90
33645;DHT22;19986;48.190;16.366;2023-04-01T05:57:51;13.20;99.90
33645;DHT22;19986;48.190;16.366;2023-04-01T06:00:17;13.20;99.90
33645;DHT22;19986;48.190;16.366;2023-04-01T06:02:45;13.30;99.90
33645;DHT22;19986;48.190;16.366;2023-04-01T06:05:17;13.40;99.90
33645;DHT22;19986;48.190;16.366;2023-04-01T06:07:44;13.50;99.90
33645;DHT22;19986;48.190;16.366;2023-04-01T06:10:15;13.60;99.90
33645;DHT22;19986;48.190;16.366;2023-04-01T06:12:57;13.70;99.90
33645;DHT22;19986;48.190;16.366;2023-04-01T06:18:21;13.80;99.90
33645;DHT22;19986;48.190;16.366;2023-04-01T06:49:16;14.50;99.90
33645;DHT22;19986;48.190;16.366;2023-04-01T06:52:04;14.60;99.90
33645;DHT22;19986;48.190;16.366;2023-04-01T06:54:52;14.60;99.90
33645;DHT22;19986;48.190;16.366;2023-04-01T06:57:41;14.60;99.90
33645;DHT22;19986;48.190;16.366;2023-04-01T07:00:24;14.60;99.90
33645;DHT22;19986;48.190;16.366;2023-04-01T07:05:25;14.60;99.90
33645;DHT22;19986;48.190;16.366;2023-04-01T07:07:59;14.60;99.90
33645;DHT22;19986;48.190;16.366;2023-04-01T07:10:52;14.60;99.90
33645;DHT22;19986;48.190;16.366;2023-04-01T07:13:27;14.60;99.90
33645;DHT22;19986;48.190;16.366;2023-04-01T07:21:26;14.70;99.90
33645;DHT22;19986;48.190;16.366;2023-04-01T07:23:53;14.80;99.90
33645;DHT22;19986;48.190;16.366;2023-04-01T07:26:24;14.90;99.90
33645;DHT22;19986;48.190;16.366;2023-04-01T07:28:53;14.90;99.90
33645;DHT22;19986;48.190;16.366;2023-04-01T07:34:12;14.90;99.90
33645;DHT22;19986;48.190;16.366;2023-04-01T07:46:03;14.90;99.90
33645;DHT22;19986;48.190;16.366;2023-04-01T07:51:15;14.90;99.90
33645;DHT22;19986;48.190;16.366;2023-04-01T08:02:20;15.20;99.90
33645;DHT22;19986;48.190;16.366;2023-04-01T08:07:44;15.30;99.90
33645;DHT22;19986;48.190;16.366;2023-04-01T08:10:22;15.30;99.90
33645;DHT22;19986;48.190;16.366;2023-04-01T08:15:48;15.40;99.90
33645;DHT22;19986;48.190;16.366;2023-04-01T08:18:27;15.50;99.90
33645;DHT22;19986;48.190;16.366;2023-04-01T08:21:05;15.70;99.90
33645;DHT22;19986;48.190;16.366;2023-04-01T08:23:43;15.80;99.90
33645;DHT22;19986;48.190;16.366;2023-04-01T08:26:42;16.00;99.90
33645;DHT22;19986;48.190;16.366;2023-04-01T08:29:44;16.30;99.90
33645;DHT22;19986;48.190;16.366;2023-04-01T08:32:27;16.40;99.90
33645;DHT22;19986;48.190;16.366;2023-04-01T08:35:18;16.50;99.80
33645;DHT22;19986;48.190;16.366;2023-04-01T08:37:46;16.60;99.90
33645;DHT22;19986;48.190;16.366;2023-04-01T08:51:39;17.00;98.80
33645;DHT22;19986;48.190;16.366;2023-04-01T09:00:09;16.80;98.80
33645;DHT22;19986;48.190;16.366;2023-04-01T09:11:07;17.30;98.20
33645;DHT22;19986;48.190;16.366;2023-04-01T09:30:33;17.40;97.20
33645;DHT22;19986;48.190;16.366;2023-04-01T09:33:36;17.40;97.20
33645;DHT22;19986;48.190;16.366;2023-04-01T09:36:04;17.30;97.10
33645;DHT22;19986;48.190;16.366;2023-04-01T09:38:58;17.00;97.50
33645;DHT22;19986;48.190;16.366;2023-04-01T09:41:32;16.80;97.80
33645;DHT22;19986;48.190;16.366;2023-04-01T09:49:55;16.80;98.10
33645;DHT22;19986;48.190;16.366;2023-04-01T09:52:30;17.00;97.90
33645;DHT22;19986;48.190;16.366;2023-04-01T10:04:01;17.80;97.20
33645;DHT22;19986;48.190;16.366;2023-04-01T10:12:35;18.20;96.10
33645;DHT22;19986;48.190;16.366;2023-04-01T10:26:01;18.30;95.30
33645;DHT22;19986;48.190;16.366;2023-04-01T10:28:37;18.40;94.60
33645;DHT22;19986;48.190;16.366;2023-04-01T10:34:18;18.20;95.20
33645;DHT22;19986;48.190;16.366;2023-04-01T10:36:56;17.90;95.70
33645;DHT22;19986;48.190;16.366;2023-04-01T10:39:34;17.80;95.70
33645;DHT22;19986;48.190;16.366;2023-04-01T11:15:57;17.90;95.60
33645;DHT22;19986;48.190;16.366;2023-04-01T11:33:34;17.60;95.70
33645;DHT22;19986;48.190;16.366;2023-04-01T11:36:11;17.70;95.50
33645;DHT22;19986;48.190;16.366;2023-04-01T11:41:37;18.00;95.00
33645;DHT22;19986;48.190;16.366;2023-04-01T11:44:16;18.20;95.10
33645;DHT22;19986;48.190;16.366;2023-04-01T11:49:56;18.40;95.00
33645;DHT22;19986;48.190;16.366;2023-04-01T12:18:37;19.90;92.00
33645;DHT22;19986;48.190;16.366;2023-04-01T12:24:15;19.40;92.70
33645;DHT22;19986;48.190;16.366;2023-04-01T12:29:43;18.80;93.30
33645;DHT22;19986;48.190;16.366;2023-04-01T12:32:39;18.70;93.00
33645;DHT22;19986;48.190;16.366;2023-04-01T12:43:42;18.80;93.60
33645;DHT22;19986;48.190;16.366;2023-04-01T13:03:21;18.60;94.40
33645;DHT22;19986;48.190;16.366;2023-04-01T13:11:09;19.30;93.10
33645;DHT22;19986;48.190;16.366;2023-04-01T13:16:16;19.00;93.10
33645;DHT22;19986;48.190;16.366;2023-04-01T13:27:42;19.20;92.80
33645;DHT22;19986;48.190;16.366;2023-04-01T13:36:00;19.00;92.40
33645;DHT22;19986;48.190;16.366;2023-04-01T13:38:46;19.00;92.30
33645;DHT22;19986;48.190;16.366;2023-04-01T13:44:12;19.00;92.20
33645;DHT22;19986;48.190;16.366;2023-04-01T13:52:23;19.30;91.70
33645;DHT22;19986;48.190;16.366;2023-04-01T13:55:06;19.30;91.70
33645;DHT22;19986;48.190;16.366;2023-04-01T14:07:14;19.30;91.50
33645;DHT22;19986;48.190;16.366;2023-04-01T14:12:50;18.80;92.10
33645;DHT22;19986;48.190;16.366;2023-04-01T14:15:41;18.70;92.40
33645;DHT22;19986;48.190;16.366;2023-04-01T14:35:52;18.70;92.20
33645;DHT22;19986;48.190;16.366;2023-04-01T14:50:02;18.90;90.30
33645;DHT22;19986;48.190;16.366;2023-04-01T14:51:54;19.00;90.40
33645;DHT22;19986;48.190;16.366;2023-04-01T14:54:34;19.20;90.60
33645;DHT22;19986;48.190;16.366;2023-04-01T14:59:40;19.30;89.60
33645;DHT22;19986;48.190;16.366;2023-04-01T15:05:32;19.40;88.20
33645;DHT22;19986;48.190;16.366;2023-04-01T15:18:44;19.30;89.80
33645;DHT22;19986;48.190;16.366;2023-04-01T15:30:14;19.20;90.60
33645;DHT22;19986;48.190;16.366;2023-04-01T15:35:25;19.20;91.20
33645;DHT22;19986;48.190;16.366;2023-04-01T15:43:56;18.90;92.10
33645;DHT22;19986;48.190;16.366;2023-04-01T15:55:13;18.20;93.80
33645;DHT22;19986;48.190;16.366;2023-04-01T16:03:39;17.70;94.70
33645;DHT22;19986;48.190;16.366;2023-04-01T16:11:53;17.70;95.20
33645;DHT22;19986;48.190;16.366;2023-04-01T16:19:53;17.50;95.30
33645;DHT22;19986;48.190;16.366;2023-04-01T16:22:27;17.40;95.30
33645;DHT22;19986;48.190;16.366;2023-04-01T16:28:38;17.30;95.60
33645;DHT22;19986;48.190;16.366;2023-04-01T16:31:07;17.20;95.90
33645;DHT22;19986;48.190;16.366;2023-04-01T16:36:41;17.00;96.40
33645;DHT22;19986;48.190;16.366;2023-04-01T16:39:29;17.00;96.50
33645;DHT22;19986;48.190;16.366;2023-04-01T16:42:31;17.00;96.80
33645;DHT22;19986;48.190;16.366;2023-04-01T16:47:57;16.80;97.10
33645;DHT22;19986;48.190;16.366;2023-04-01T16:50:30;16.80;97.30
33645;DHT22;19986;48.190;16.366;2023-04-01T16:58:26;16.60;98.10
33645;DHT22;19986;48.190;16.366;2023-04-01T17:01:01;16.60;98.50
33645;DHT22;19986;48.190;16.366;2023-04-01T17:03:46;16.60;98.30
33645;DHT22;19986;48.190;16.366;2023-04-01T17:06:45;16.40;97.70
33645;DHT22;19986;48.190;16.366;2023-04-01T17:09:31;16.30;98.20
33645;DHT22;19986;48.190;16.366;2023-04-01T17:20:00;16.00;98.80
33645;DHT22;19986;48.190;16.366;2023-04-01T17:27:30;15.80;99.70
33645;DHT22;19986;48.190;16.366;2023-04-01T17:30:17;15.80;99.90
33645;DHT22;19986;48.190;16.366;2023-04-01T17:35:57;15.60;99.90
33645;DHT22;19986;48.190;16.366;2023-04-01T17:38:48;15.50;99.90
33645;DHT22;19986;48.190;16.366;2023-04-01T17:41:31;15.40;99.90
33645;DHT22;19986;48.190;16.366;2023-04-01T17:44:29;15.30;99.90
33645;DHT22;19986;48.190;16.366;2023-04-01T17:49:44;15.20;99.90
33645;DHT22;19986;48.190;16.366;2023-04-01T17:52:39;15.10;99.90
33645;DHT22;19986;48.190;16.366;2023-04-01T18:07:04;14.80;99.90
33645;DHT22;19986;48.190;16.366;2023-04-01T18:09:38;14.70;99.90
33645;DHT22;19986;48.190;16.366;2023-04-01T18:12:17;14.70;99.90
33645;DHT22;19986;48.190;16.366;2023-04-01T18:18:05;14.70;99.90
33645;DHT22;19986;48.190;16.366;2023-04-01T18:25:48;14.50;99.90
33645;DHT22;19986;48.190;16.366;2023-04-01T18:28:45;14.50;99.90
33645;DHT22;19986;48.190;16.366;2023-04-01T18:31:49;14.50;99.90
33645;DHT22;19986;48.190;16.366;2023-04-01T18:39:56;14.40;99.90
33645;DHT22;19986;48.190;16.366;2023-04-01T18:42:43;14.40;99.90
33645;DHT22;19986;48.190;16.366;2023-04-01T18:45:32;14.30;99.90
33645;DHT22;19986;48.190;16.366;2023-04-01T18:50:56;14.20;99.90
33645;DHT22;19986;48.190;16.366;2023-04-01T18:53:44;14.20;99.90
33645;DHT22;19986;48.190;16.366;2023-04-01T18:56:23;14.20;99.90
33645;DHT22;19986;48.190;16.366;2023-04-01T18:58:59;14.20;99.90
33645;DHT22;19986;48.190;16.366;2023-04-01T19:01:52;14.20;99.90
33645;DHT22;19986;48.190;16.366;2023-04-01T19:10:19;14.20;99.90
33645;DHT22;19986;48.190;16.366;2023-04-01T19:15:35;14.10;99.90
33645;DHT22;19986;48.190;16.366;2023-04-01T19:27:03;13.80;99.90
33645;DHT22;19986;48.190;16.366;2023-04-01T19:32:40;13.80;99.90
33645;DHT22;19986;48.190;16.366;2023-04-01T19:35:23;13.80;99.90
33645;DHT22;19986;48.190;16.366;2023-04-01T19:38:11;13.70;99.90
33645;DHT22;19986;48.190;16.366;2023-04-01T19:44:25;13.60;99.90
33645;DHT22;19986;48.190;16.366;2023-04-01T19:47:00;13.60;99.90
33645;DHT22;19986;48.190;16.366;2023-04-01T19:52:32;13.60;99.90
33645;DHT22;19986;48.190;16.366;2023-04-01T19:55:35;13.50;99.90
33645;DHT22;19986;48.190;16.366;2023-04-01T20:00:44;13.50;99.90
33645;DHT22;19986;48.190;16.366;2023-04-01T20:03:38;13.50;99.90
33645;DHT22;19986;48.190;16.366;2023-04-01T20:06:28;13.50;99.90
33645;DHT22;19986;48.190;16.366;2023-04-01T20:14:56;13.40;99.90
33645;DHT22;19986;48.190;16.366;2023-04-01T20:22:34;13.30;99.90
33645;DHT22;19986;48.190;16.366;2023-04-01T20:25:13;13.30;99.90
33645;DHT22;19986;48.190;16.366;2023-04-01T20:50:24;13.20;99.90
33645;DHT22;19986;48.190;16.366;2023-04-01T21:12:45;13.30;99.90
33645;DHT22;19986;48.190;16.366;2023-04-01T21:20:59;13.30;99.90
33645;DHT22;19986;48.190;16.366;2023-04-01T21:46:19;13.40;99.90
33645;DHT22;19986;48.190;16.366;2023-04-01T21:52:11;13.40;99.90
33645;DHT22;19986;48.190;16.366;2023-04-01T22:24:33;13.40;99.90
33645;DHT22;19986;48.190;16.366;2023-04-01T22:27:28;13.40;99.90
33645;DHT22;19986;48.190;16.366;2023-04-01T22:33:15;13.40;99.90
33645;DHT22;19986;48.190;16.366;2023-04-01T22:44:05;13.40;99.90
33645;DHT22;19986;48.190;16.366;2023-04-01T22:52:40;13.40;99.90
33645;DHT22;19986;48.190;16.366;2023-04-01T22:57:49;13.40;99.90
33645;DHT22;19986;48.190;16.366;2023-04-01T23:00:37;13.40;99.90
33645;DHT22;19986;48.190;16.366;2023-04-01T23:03:46;13.40;99.90
33645;DHT22;19986;48.190;16.366;2023-04-01T23:06:06;13.40;99.90
33645;DHT22;19986;48.190;16.366;2023-04-01T23:11:37;13.40;99.90
33645;DHT22;19986;48.190;16.366;2023-04-01T23:26:07;13.40;99.90
33645;DHT22;19986;48.190;16.366;2023-04-01T23:28:55;13.30;99.90
33645;DHT22;19986;48.190;16.366;2023-04-01T23:34:01;13.40;99.90
33645;DHT22;19986;48.190;16.366;2023-04-01T23:36:28;13.40;99.90
33645;DHT22;19986;48.190;16.366;2023-04-01T23:39:03;13.40;99.90
33645;DHT22;19986;48.190;16.366;2023-04-01T23:41:31;13.50;99.90
33645;DHT22;19986;48.190;16.366;2023-04-01T23:44:05;13.50;99.90
33645;DHT22;19986;48.190;16.366;2023-04-01T23:46:33;13.60;99.90
33645;DHT22;19986;48.190;16.366;2023-04-01T23:49:01;13.60;99.90
33645;DHT22;19986;48.190;16.366;2023-04-01T23:51:39;13.60;99.90
33645;DHT22;19986;48.190;16.366;2023-04-01T23:54:23;13.60;99.90
33645;DHT22;19986;48.190;16.366;2023-04-01T23:56:56;13.60;99.90
33645;DHT22;19986;48.190;16.366;2023-04-01T23:59:27;13.60;99.90
